Time;durP1;ratioP1;P1;durP2;ratioP2;P2;SDS_P1;SDS_P2;PMS_P1;PMS_P2;Temp;Humidity;BMP_temperature;BMP_pressure;BME280_temperature;BME280_humidity;BME280_pressure;Samples;Min_cycle;Max_cycle;Signal;HPM_P1;HPM_P2
2022/07/19 00:02:08;;;;;;;14.10;13.30;;;;;;;22.00;100.00;101492.38;1995351;71;32923;-70
2022/07/19 00:07:53;;;;;;;14.37;13.47;;;;;;;22.23;100.00;101493.66;2016708;71;31441;-70
2022/07/19 00:13:38;;;;;;;14.63;13.93;;;;;;;22.34;100.00;101488.38;2014861;71;30985;-70
2022/07/19 00:19:22;;;;;;;14.17;13.37;;;;;;;22.07;100.00;101487.01;1998525;71;30951;-70
2022/07/19 00:25:09;;;;;;;15.50;14.60;;;;;;;22.03;100.00;101483.22;2013033;71;30955;-70
2022/07/19 00:30:58;;;;;;;16.85;15.98;;;;;;;21.74;100.00;101472.77;2013277;71;30963;-70
2022/07/19 00:36:43;;;;;;;18.43;17.53;;;;;;;21.50;100.00;101455.69;1998901;71;30916;-70
2022/07/19 00:42:28;;;;;;;18.30;17.40;;;;;;;21.67;100.00;101460.62;2002486;71;30891;-70
2022/07/19 00:48:13;;;;;;;17.90;16.87;;;;;;;21.75;100.00;101461.71;2004081;71;30934;-70
2022/07/19 00:54:01;;;;;;;16.77;15.87;;;;;;;21.85;100.00;101447.73;2007821;71;31436;-68
2022/07/19 00:59:51;;;;;;;16.25;15.43;;;;;;;22.04;100.00;101448.07;2018442;71;30955;-71
2022/07/19 01:05:36;;;;;;;15.55;14.75;;;;;;;22.04;100.00;101444.66;2004540;71;30892;-71
2022/07/19 01:11:22;;;;;;;14.67;13.97;;;;;;;22.03;100.00;101433.13;2006252;71;30916;-71
2022/07/19 01:17:07;;;;;;;15.90;14.97;;;;;;;22.13;100.00;101433.25;2005768;71;31059;-71
2022/07/19 01:22:52;;;;;;;15.60;14.80;;;;;;;22.13;100.00;101427.59;2005750;70;30901;-69
2022/07/19 01:28:38;;;;;;;16.15;15.35;;;;;;;22.03;100.00;101432.29;2011213;71;31058;-69
2022/07/19 01:34:25;;;;;;;18.60;17.70;;;;;;;22.06;100.00;101420.27;2011302;71;30914;-66
2022/07/19 01:40:13;;;;;;;21.27;20.10;;;;;;;22.08;100.00;101415.06;2009312;71;30999;-66
2022/07/19 01:46:00;;;;;;;23.80;22.50;;;;;;;21.78;100.00;101421.41;2006633;71;30876;-68
2022/07/19 01:51:47;;;;;;;26.30;24.87;;;;;;;21.12;100.00;101410.55;2005786;71;33336;-68
2022/07/19 01:57:33;;;;;;;29.12;27.52;;;;;;;20.87;100.00;101410.38;1987904;71;27963;-68
2022/07/19 02:03:18;;;;;;;28.00;26.37;;;;;;;20.84;100.00;101410.21;2018503;71;30995;-68
2022/07/19 02:09:03;;;;;;;26.43;25.00;;;;;;;20.95;100.00;101408.67;2005828;71;30974;-68
2022/07/19 02:14:48;;;;;;;27.10;25.60;;;;;;;20.95;100.00;101398.78;2004400;71;30939;-68
2022/07/19 02:20:33;;;;;;;29.20;27.50;;;;;;;20.61;100.00;101402.63;1991230;71;30919;-68
2022/07/19 02:26:18;;;;;;;31.93;30.03;;;;;;;20.26;100.00;101403.90;2005697;71;31012;-68
2022/07/19 02:32:05;;;;;;;36.97;34.87;;;;;;;20.11;100.00;101403.84;1991378;71;30792;-68
2022/07/19 02:37:50;;;;;;;39.10;36.53;;;;;;;20.07;100.00;101400.66;2011794;71;31459;-68
2022/07/19 02:43:35;;;;;;;37.57;35.30;;;;;;;20.17;100.00;101386.17;2013566;71;30884;-69
2022/07/19 02:49:21;;;;;;;36.17;33.87;;;;;;;20.28;100.00;101381.83;2002496;71;33268;-70
2022/07/19 02:55:08;;;;;;;33.87;31.87;;;;;;;20.56;100.00;101376.58;2006112;71;30904;-70
2022/07/19 03:00:56;;;;;;;32.27;30.27;;;;;;;20.63;100.00;101365.57;2014586;71;30876;-70
2022/07/19 03:06:41;;;;;;;28.43;26.83;;;;;;;20.82;100.00;101363.15;2008014;71;30798;-70
2022/07/19 03:12:26;;;;;;;30.63;28.63;;;;;;;21.03;100.00;101351.87;2009594;71;30943;-70
2022/07/19 03:18:11;;;;;;;31.10;29.07;;;;;;;20.96;100.00;101343.95;1997119;71;30812;-70
2022/07/19 03:23:59;;;;;;;31.47;29.30;;;;;;;20.95;100.00;101340.88;2014966;71;30907;-70
2022/07/19 03:29:44;;;;;;;30.57;28.47;;;;;;;20.96;100.00;101329.00;2009241;71;30998;-70
2022/07/19 03:35:29;;;;;;;29.80;27.70;;;;;;;21.07;100.00;101332.48;2016713;71;30864;-70
2022/07/19 03:41:14;;;;;;;30.77;28.97;;;;;;;21.08;100.00;101318.60;2012937;71;30934;-70
2022/07/19 03:46:59;;;;;;;32.37;30.33;;;;;;;21.14;100.00;101324.87;2013398;71;31478;-73
2022/07/19 03:52:44;;;;;;;32.77;30.70;;;;;;;21.04;100.00;101316.23;2004436;71;31334;-73
2022/07/19 03:58:48;;;;;;;33.33;31.23;;;;;;;21.03;100.00;101315.14;2000790;71;30879;-72
2022/07/19 04:04:33;;;;;;;30.67;28.60;;;;;;;21.06;100.00;101308.22;2016688;71;30876;-71
2022/07/19 04:10:18;;;;;;;33.93;31.63;;;;;;;21.04;100.00;101308.33;2013297;71;31356;-70
2022/07/19 04:16:04;;;;;;;31.60;29.43;;;;;;;20.94;100.00;101301.67;2000483;71;30883;-70
2022/07/19 04:21:49;;;;;;;34.10;31.80;;;;;;;21.10;100.00;101303.53;2014978;71;30875;-70
2022/07/19 04:27:34;;;;;;;33.73;31.30;;;;;;;21.26;100.00;101298.95;2014891;71;30878;-70
2022/07/19 04:33:21;;;;;;;32.80;30.53;;;;;;;21.35;100.00;101290.36;1953144;72;30879;-70
2022/07/19 04:42:17;;;;;;;31.43;29.30;;;;;;;21.53;100.00;101281.95;2038425;69;30515;-70
2022/07/19 04:44:47;;;;;;;31.83;29.63;;;;;;;21.53;100.00;101286.20;1928750;73;24146;-70
2022/07/19 04:47:18;;;;;;;32.27;29.97;;;;;;;21.59;100.00;101293.30;1943510;73;24233;-70
2022/07/19 04:49:53;;;;;;;31.47;29.17;;;;;;;21.61;100.00;101279.62;1974203;72;24207;-70
2022/07/19 04:52:24;;;;;;;32.30;29.90;;;;;;;21.59;100.00;101283.40;1938143;73;24226;-70
2022/07/19 04:54:57;;;;;;;32.77;30.37;;;;;;;21.50;100.00;101279.00;1934454;73;24239;-70
2022/07/19 04:57:28;;;;;;;33.70;31.17;;;;;;;21.37;100.00;101275.31;1940052;73;24157;-70
2022/07/19 04:59:59;;;;;;;33.33;30.93;;;;;;;21.32;100.00;101277.77;1938383;73;26686;-71
2022/07/19 05:05:45;;;;;;;33.33;30.73;;;;;;;21.48;100.00;101274.30;2005650;71;31070;-71
2022/07/19 05:11:35;;;;;;;32.20;29.70;;;;;;;21.76;100.00;101271.90;1997162;71;31374;-71
2022/07/19 05:17:23;;;;;;;32.07;29.83;;;;;;;21.64;100.00;101270.46;2016453;71;30871;-71
2022/07/19 05:23:08;;;;;;;30.77;28.60;;;;;;;21.85;100.00;101267.55;2014852;71;30892;-71
2022/07/19 05:28:54;;;;;;;30.30;28.20;;;;;;;22.00;100.00;101266.05;2016498;71;32896;-70
2022/07/19 05:34:38;;;;;;;29.60;27.60;;;;;;;22.01;100.00;101263.47;1995291;71;31385;-70
2022/07/19 05:40:23;;;;;;;31.23;28.62;;;;;;;22.10;100.00;101250.86;2007873;71;30869;-71
2022/07/19 05:46:09;;;;;;;31.40;28.93;;;;;;;22.15;100.00;101246.98;2009424;71;30910;-70
2022/07/19 05:51:55;;;;;;;31.90;29.60;;;;;;;22.31;100.00;101243.66;2009667;71;30838;-68
2022/07/19 05:57:43;;;;;;;33.83;31.47;;;;;;;22.46;100.00;101238.67;2005690;71;31345;-70
2022/07/19 06:03:28;;;;;;;35.13;32.57;;;;;;;22.65;100.00;101239.48;2003878;71;30864;-70
2022/07/19 06:09:15;;;;;;;35.73;32.90;;;;;;;22.74;100.00;101253.53;1994814;71;30863;-69
2022/07/19 06:15:00;;;;;;;37.47;34.63;;;;;;;22.82;100.00;101250.56;2013509;71;30804;-70
2022/07/19 06:20:45;;;;;;;36.77;34.27;;;;;;;22.96;100.00;101254.42;2011677;71;30852;-70
2022/07/19 06:26:31;;;;;;;36.23;33.83;;;;;;;23.09;100.00;101241.27;2009693;71;30934;-69
2022/07/19 06:32:16;;;;;;;36.77;33.97;;;;;;;23.29;100.00;101242.82;2008000;71;30803;-70
2022/07/19 06:38:01;;;;;;;36.20;33.45;;;;;;;23.54;100.00;101233.02;2000305;71;30892;-70
2022/07/19 06:43:46;;;;;;;32.42;30.32;;;;;;;23.68;100.00;101236.25;2000777;71;30848;-70
2022/07/19 06:49:31;;;;;;;29.42;27.42;;;;;;;23.83;100.00;101225.49;2000867;71;30809;-70
2022/07/19 06:55:16;;;;;;;18.20;17.23;;;;;;;24.08;100.00;101209.70;2015097;71;31355;-70
2022/07/19 07:01:02;;;;;;;18.62;16.97;;;;;;;24.47;100.00;101208.66;2004384;71;30854;-70
2022/07/19 07:06:48;;;;;;;15.78;14.78;;;;;;;24.69;100.00;101202.86;2013286;71;31478;-70
2022/07/19 07:12:33;;;;;;;15.90;15.00;;;;;;;24.78;100.00;101197.76;2016540;71;30929;-71
2022/07/19 07:18:18;;;;;;;14.95;13.62;;;;;;;24.91;100.00;101188.75;2016976;71;31181;-71
2022/07/19 07:24:04;;;;;;;14.38;13.32;;;;;;;24.99;100.00;101189.71;2014865;71;30908;-68
2022/07/19 07:29:49;;;;;;;14.07;12.88;;;;;;;25.24;100.00;101176.02;2013132;71;30910;-72
2022/07/19 07:35:35;;;;;;;14.00;12.80;;;;;;;25.32;100.00;101168.66;2008005;71;30934;-68
2022/07/19 07:41:20;;;;;;;13.83;12.80;;;;;;;25.39;100.00;101170.80;1994866;71;30991;-68
2022/07/19 07:47:08;;;;;;;13.72;12.73;;;;;;;26.12;100.00;101161.10;2016984;71;30904;-66
2022/07/19 07:52:52;;;;;;;14.73;13.60;;;;;;;26.44;100.00;101167.31;1991560;71;30974;-66
2022/07/19 07:58:37;;;;;;;14.33;13.15;;;;;;;27.18;100.00;101156.86;2011297;71;30965;-68
2022/07/19 08:04:22;;;;;;;13.30;12.33;;;;;;;27.77;100.00;101158.69;2014963;71;30974;-68
2022/07/19 08:10:10;;;;;;;13.68;12.80;;;;;;;28.69;100.00;101145.66;2014958;71;30983;-66
2022/07/19 08:15:56;;;;;;;13.72;12.82;;;;;;;29.37;100.00;101136.11;2013227;71;30901;-66
2022/07/19 08:21:41;;;;;;;13.78;12.78;;;;;;;28.88;100.00;101140.45;2003934;71;30891;-67
2022/07/19 08:27:29;;;;;;;14.65;13.53;;;;;;;29.52;100.00;101136.97;2000386;71;31394;-66
2022/07/19 08:33:15;;;;;;;14.13;13.20;;;;;;;29.97;100.00;101128.18;1970164;72;30952;-69
2022/07/19 08:39:00;;;;;;;14.47;13.48;;;;;;;29.26;100.00;101138.13;2014940;71;31455;-68
2022/07/19 08:44:47;;;;;;;14.30;13.45;;;;;;;30.12;100.00;101131.25;2003993;71;30963;-68
2022/07/19 08:50:38;;;;;;;14.00;13.20;;;;;;;29.58;100.00;101123.86;2018571;71;31499;-69
2022/07/19 09:02:27;;;;;;;13.50;12.50;;;;;;;30.46;100.00;101119.52;2002610;71;30838;-68
2022/07/19 09:08:19;;;;;;;13.45;12.40;;;;;;;29.88;100.00;101108.55;2003894;71;30898;-69
2022/07/19 09:14:09;;;;;;;14.45;12.80;;;;;;;30.24;100.00;101099.28;2009529;71;30888;-69
2022/07/19 09:20:27;;;;;;;14.53;13.40;;;;;;;29.35;100.00;101102.17;2005923;71;30990;-66
2022/07/19 09:26:13;;;;;;;14.10;13.08;;;;;;;30.13;100.00;101084.97;2000830;71;30904;-66
2022/07/19 09:32:04;;;;;;;14.40;13.40;;;;;;;31.57;100.00;101084.07;2009643;71;31001;-68
2022/07/19 09:37:51;;;;;;;14.58;13.68;;;;;;;30.92;100.00;101090.63;2011118;71;31011;-68
2022/07/19 09:43:51;;;;;;;14.07;13.13;;;;;;;29.81;100.00;101085.01;2018773;71;30877;-68
2022/07/19 09:49:49;;;;;;;14.07;13.15;;;;;;;30.71;100.00;101074.95;2018466;71;31004;-67
2022/07/19 09:55:36;;;;;;;14.83;13.62;;;;;;;30.42;100.00;101066.26;2016755;71;31067;-67
2022/07/19 10:01:23;;;;;;;15.50;14.28;;;;;;;29.20;100.00;101060.44;2006352;71;30931;-68
2022/07/19 10:07:09;;;;;;;15.90;14.63;;;;;;;31.13;98.27;101046.03;2016679;71;31964;-69
2022/07/19 10:12:54;;;;;;;15.50;14.13;;;;;;;31.09;96.69;101038.06;2016779;71;31424;-67
2022/07/19 10:18:43;;;;;;;15.63;14.43;;;;;;;31.30;94.40;101035.65;2006328;71;30896;-66
2022/07/19 10:24:50;;;;;;;15.38;14.25;;;;;;;33.01;79.94;101023.84;2009559;71;32058;-66
2022/07/19 10:27:40;;;;;;;15.68;14.53;;;;;;;32.95;79.37;101027.83;1963410;72;25248;-67
2022/07/19 10:33:41;;;;;;;15.38;14.43;;;;;;;30.65;95.18;101030.73;2000558;71;30844;-67
2022/07/19 10:40:02;;;;;;;16.07;14.93;;;;;;;30.05;100.00;101010.90;2000690;71;30889;-65
2022/07/19 10:46:07;;;;;;;15.78;14.38;;;;;;;32.04;83.56;101003.96;2011246;71;30903;-65
2022/07/19 10:51:55;;;;;;;16.00;14.90;;;;;;;32.31;81.94;100993.98;2015060;71;32354;-65
2022/07/19 10:57:41;;;;;;;15.83;14.53;;;;;;;32.91;81.18;100981.64;2005600;71;31969;-66
2022/07/19 11:03:33;;;;;;;15.63;14.45;;;;;;;31.48;89.10;101000.42;2016444;71;31959;-67
2022/07/19 11:09:19;;;;;;;15.90;14.38;;;;;;;31.94;82.30;100971.23;2015152;71;31882;-70
2022/07/19 11:15:09;;;;;;;16.37;15.10;;;;;;;32.46;75.30;100974.69;2008075;71;32002;-68
2022/07/19 11:20:55;;;;;;;15.55;14.35;;;;;;;31.14;84.87;100966.49;2016560;71;31869;-70
2022/07/19 11:26:45;;;;;;;16.02;14.60;;;;;;;34.63;57.11;100960.84;1995181;71;31866;-69
2022/07/19 11:32:31;;;;;;;16.85;15.60;;;;;;;34.37;59.09;100954.64;1989893;71;31346;-69
2022/07/19 11:38:17;;;;;;;15.98;14.85;;;;;;;34.32;59.32;100936.41;2000367;71;31919;-69
2022/07/19 11:44:05;;;;;;;16.90;15.30;;;;;;;33.37;64.27;100938.50;1995280;71;31809;-69
2022/07/19 11:49:52;;;;;;;15.75;14.55;;;;;;;33.69;63.25;100935.05;2008134;71;31404;-69
2022/07/19 11:55:40;;;;;;;16.17;15.05;;;;;;;33.81;62.33;100928.63;2018501;71;31870;-68
2022/07/19 12:01:28;;;;;;;15.98;14.63;;;;;;;33.61;65.86;100920.57;2004041;71;31927;-68
